sensor_id;sensor_type;location;lat;lon;timestamp;temperature;humidity
17726;DHT22;8983;53.156;17.960;2023-12-14T00:01:23;3.70;99.90
17726;DHT22;8983;53.156;17.960;2023-12-14T00:03:51;3.80;99.90
17726;DHT22;8983;53.156;17.960;2023-12-14T00:06:19;3.70;99.90
17726;DHT22;8983;53.156;17.960;2023-12-14T00:08:47;3.70;99.90
17726;DHT22;8983;53.156;17.960;2023-12-14T00:11:15;3.70;99.90
17726;DHT22;8983;53.156;17.960;2023-12-14T00:13:43;3.60;99.90
17726;DHT22;8983;53.156;17.960;2023-12-14T00:16:13;3.60;99.90
17726;DHT22;8983;53.156;17.960;2023-12-14T00:18:41;3.60;99.90
17726;DHT22;8983;53.156;17.960;2023-12-14T00:21:09;3.60;99.90
17726;DHT22;8983;53.156;17.960;2023-12-14T00:23:37;3.60;99.90
17726;DHT22;8983;53.156;17.960;2023-12-14T00:26:05;3.60;99.90
17726;DHT22;8983;53.156;17.960;2023-12-14T00:28:34;3.60;99.90
17726;DHT22;8983;53.156;17.960;2023-12-14T00:31:02;3.70;99.90
17726;DHT22;8983;53.156;17.960;2023-12-14T00:33:31;3.80;99.90
17726;DHT22;8983;53.156;17.960;2023-12-14T00:36:00;3.60;99.90
17726;DHT22;8983;53.156;17.960;2023-12-14T00:38:28;3.60;99.90
17726;DHT22;8983;53.156;17.960;2023-12-14T00:40:56;3.60;99.90
17726;DHT22;8983;53.156;17.960;2023-12-14T00:43:24;3.60;99.90
17726;DHT22;8983;53.156;17.960;2023-12-14T00:45:52;3.60;99.90
17726;DHT22;8983;53.156;17.960;2023-12-14T00:48:20;3.70;99.90
17726;DHT22;8983;53.156;17.960;2023-12-14T00:50:50;4.20;99.90
17726;DHT22;8983;53.156;17.960;2023-12-14T00:53:18;3.60;99.90
17726;DHT22;8983;53.156;17.960;2023-12-14T00:55:46;4.20;99.90
17726;DHT22;8983;53.156;17.960;2023-12-14T00:58:14;3.60;99.90
17726;DHT22;8983;53.156;17.960;2023-12-14T01:00:43;3.80;99.90
17726;DHT22;8983;53.156;17.960;2023-12-14T01:03:11;3.60;99.90
17726;DHT22;8983;53.156;17.960;2023-12-14T01:05:39;3.60;99.90
17726;DHT22;8983;53.156;17.960;2023-12-14T01:08:08;3.60;99.90
17726;DHT22;8983;53.156;17.960;2023-12-14T01:10:36;3.60;99.90
17726;DHT22;8983;53.156;17.960;2023-12-14T01:13:04;3.60;99.90
17726;DHT22;8983;53.156;17.960;2023-12-14T01:15:33;3.70;99.90
17726;DHT22;8983;53.156;17.960;2023-12-14T01:18:01;3.60;99.90
17726;DHT22;8983;53.156;17.960;2023-12-14T01:20:29;3.60;99.90
17726;DHT22;8983;53.156;17.960;2023-12-14T01:22:57;3.60;99.90
17726;DHT22;8983;53.156;17.960;2023-12-14T01:25:26;3.60;99.90
17726;DHT22;8983;53.156;17.960;2023-12-14T01:27:54;3.60;99.90
17726;DHT22;8983;53.156;17.960;2023-12-14T01:30:22;3.60;99.90
17726;DHT22;8983;53.156;17.960;2023-12-14T01:32:51;3.70;99.90
17726;DHT22;8983;53.156;17.960;2023-12-14T01:35:19;3.60;99.90
17726;DHT22;8983;53.156;17.960;2023-12-14T01:37:47;3.60;99.90
17726;DHT22;8983;53.156;17.960;2023-12-14T01:40:18;3.70;99.90
17726;DHT22;8983;53.156;17.960;2023-12-14T01:42:47;3.60;99.90
17726;DHT22;8983;53.156;17.960;2023-12-14T01:45:16;3.50;99.90
17726;DHT22;8983;53.156;17.960;2023-12-14T01:47:45;3.50;99.90
17726;DHT22;8983;53.156;17.960;2023-12-14T01:50:13;3.50;99.90
17726;DHT22;8983;53.156;17.960;2023-12-14T01:52:41;3.50;99.90
17726;DHT22;8983;53.156;17.960;2023-12-14T01:55:09;3.90;99.90
17726;DHT22;8983;53.156;17.960;2023-12-14T01:57:37;3.60;99.90
17726;DHT22;8983;53.156;17.960;2023-12-14T02:00:15;3.70;99.90
17726;DHT22;8983;53.156;17.960;2023-12-14T02:02:45;3.50;99.90
17726;DHT22;8983;53.156;17.960;2023-12-14T02:05:13;3.50;99.90
17726;DHT22;8983;53.156;17.960;2023-12-14T02:07:41;3.50;99.90
17726;DHT22;8983;53.156;17.960;2023-12-14T02:10:09;3.50;99.90
17726;DHT22;8983;53.156;17.960;2023-12-14T02:12:37;3.50;99.90
17726;DHT22;8983;53.156;17.960;2023-12-14T02:15:07;3.50;99.90
17726;DHT22;8983;53.156;17.960;2023-12-14T02:17:36;3.50;99.90
17726;DHT22;8983;53.156;17.960;2023-12-14T02:20:05;3.50;99.90
17726;DHT22;8983;53.156;17.960;2023-12-14T02:22:47;3.50;99.90
17726;DHT22;8983;53.156;17.960;2023-12-14T02:25:16;3.80;99.90
17726;DHT22;8983;53.156;17.960;2023-12-14T02:27:45;3.50;99.90
17726;DHT22;8983;53.156;17.960;2023-12-14T02:30:13;3.70;99.90
17726;DHT22;8983;53.156;17.960;2023-12-14T02:32:41;3.60;99.90
17726;DHT22;8983;53.156;17.960;2023-12-14T02:35:10;3.50;99.90
17726;DHT22;8983;53.156;17.960;2023-12-14T02:37:39;3.50;99.90
17726;DHT22;8983;53.156;17.960;2023-12-14T02:40:09;3.50;99.90
17726;DHT22;8983;53.156;17.960;2023-12-14T02:42:37;3.50;99.90
17726;DHT22;8983;53.156;17.960;2023-12-14T02:45:07;3.50;99.90
17726;DHT22;8983;53.156;17.960;2023-12-14T02:47:35;3.50;99.90
17726;DHT22;8983;53.156;17.960;2023-12-14T02:50:03;3.50;99.90
17726;DHT22;8983;53.156;17.960;2023-12-14T02:52:32;3.50;99.90
17726;DHT22;8983;53.156;17.960;2023-12-14T02:55:02;3.50;99.90
17726;DHT22;8983;53.156;17.960;2023-12-14T02:57:30;3.50;99.90
17726;DHT22;8983;53.156;17.960;2023-12-14T02:59:58;3.50;99.90
17726;DHT22;8983;53.156;17.960;2023-12-14T03:02:26;3.50;99.90
17726;DHT22;8983;53.156;17.960;2023-12-14T03:04:54;3.50;99.90
17726;DHT22;8983;53.156;17.960;2023-12-14T03:07:22;3.50;99.90
17726;DHT22;8983;53.156;17.960;2023-12-14T03:09:50;3.50;99.90
17726;DHT22;8983;53.156;17.960;2023-12-14T03:12:20;3.50;99.90
17726;DHT22;8983;53.156;17.960;2023-12-14T03:14:48;3.50;99.90
17726;DHT22;8983;53.156;17.960;2023-12-14T03:17:16;3.50;99.90
17726;DHT22;8983;53.156;17.960;2023-12-14T03:19:44;3.50;99.90
17726;DHT22;8983;53.156;17.960;2023-12-14T03:22:12;3.50;99.90
17726;DHT22;8983;53.156;17.960;2023-12-14T03:24:40;3.50;99.90
17726;DHT22;8983;53.156;17.960;2023-12-14T03:27:08;3.50;99.90
17726;DHT22;8983;53.156;17.960;2023-12-14T03:29:38;3.50;99.90
17726;DHT22;8983;53.156;17.960;2023-12-14T03:32:06;3.50;99.90
17726;DHT22;8983;53.156;17.960;2023-12-14T03:34:34;3.50;99.90
17726;DHT22;8983;53.156;17.960;2023-12-14T03:37:03;3.50;99.90
17726;DHT22;8983;53.156;17.960;2023-12-14T03:39:31;3.50;99.90
17726;DHT22;8983;53.156;17.960;2023-12-14T03:41:59;3.40;99.90
17726;DHT22;8983;53.156;17.960;2023-12-14T03:44:27;3.40;99.90
17726;DHT22;8983;53.156;17.960;2023-12-14T03:46:56;3.40;99.90
17726;DHT22;8983;53.156;17.960;2023-12-14T03:49:26;3.50;99.90
17726;DHT22;8983;53.156;17.960;2023-12-14T03:51:55;3.50;99.90
17726;DHT22;8983;53.156;17.960;2023-12-14T03:54:23;3.50;99.90
17726;DHT22;8983;53.156;17.960;2023-12-14T03:56:51;3.50;99.90
17726;DHT22;8983;53.156;17.960;2023-12-14T03:59:19;3.50;99.90
17726;DHT22;8983;53.156;17.960;2023-12-14T04:01:47;3.40;99.90
17726;DHT22;8983;53.156;17.960;2023-12-14T04:04:17;3.40;99.90
17726;DHT22;8983;53.156;17.960;2023-12-14T04:06:45;3.90;99.90
17726;DHT22;8983;53.156;17.960;2023-12-14T04:09:13;3.40;99.90
17726;DHT22;8983;53.156;17.960;2023-12-14T04:11:41;3.40;99.90
17726;DHT22;8983;53.156;17.960;2023-12-14T04:14:09;3.50;99.90
17726;DHT22;8983;53.156;17.960;2023-12-14T04:16:38;3.70;99.90
17726;DHT22;8983;53.156;17.960;2023-12-14T04:19:06;3.50;99.90
17726;DHT22;8983;53.156;17.960;2023-12-14T04:21:39;3.50;99.90
17726;DHT22;8983;53.156;17.960;2023-12-14T04:24:07;3.50;99.90
17726;DHT22;8983;53.156;17.960;2023-12-14T04:26:36;3.50;99.90
17726;DHT22;8983;53.156;17.960;2023-12-14T04:29:05;3.50;99.90
17726;DHT22;8983;53.156;17.960;2023-12-14T04:31:34;3.50;99.90
17726;DHT22;8983;53.156;17.960;2023-12-14T04:34:02;3.50;99.90
17726;DHT22;8983;53.156;17.960;2023-12-14T04:36:30;3.50;99.90
17726;DHT22;8983;53.156;17.960;2023-12-14T04:39:00;3.50;99.90
17726;DHT22;8983;53.156;17.960;2023-12-14T04:41:28;3.70;99.90
17726;DHT22;8983;53.156;17.960;2023-12-14T04:43:56;3.50;99.90
17726;DHT22;8983;53.156;17.960;2023-12-14T04:46:24;3.50;99.90
17726;DHT22;8983;53.156;17.960;2023-12-14T04:48:52;3.50;99.90
17726;DHT22;8983;53.156;17.960;2023-12-14T04:51:20;3.50;99.90
17726;DHT22;8983;53.156;17.960;2023-12-14T04:53:48;3.50;99.90
17726;DHT22;8983;53.156;17.960;2023-12-14T04:56:18;3.50;99.90
17726;DHT22;8983;53.156;17.960;2023-12-14T04:58:46;3.40;99.90
17726;DHT22;8983;53.156;17.960;2023-12-14T05:01:14;3.50;99.90
17726;DHT22;8983;53.156;17.960;2023-12-14T05:03:42;3.40;99.90
17726;DHT22;8983;53.156;17.960;2023-12-14T05:06:10;3.50;99.90
17726;DHT22;8983;53.156;17.960;2023-12-14T05:08:38;3.40;99.90
17726;DHT22;8983;53.156;17.960;2023-12-14T05:11:07;3.40;99.90
17726;DHT22;8983;53.156;17.960;2023-12-14T05:13:36;3.40;99.90
17726;DHT22;8983;53.156;17.960;2023-12-14T05:16:05;3.30;99.90
17726;DHT22;8983;53.156;17.960;2023-12-14T05:18:33;3.40;99.90
17726;DHT22;8983;53.156;17.960;2023-12-14T05:21:01;3.40;99.90
17726;DHT22;8983;53.156;17.960;2023-12-14T05:23:29;3.40;99.90
17726;DHT22;8983;53.156;17.960;2023-12-14T05:25:57;3.30;99.90
17726;DHT22;8983;53.156;17.960;2023-12-14T05:28:25;3.40;99.90
17726;DHT22;8983;53.156;17.960;2023-12-14T05:30:55;3.40;99.90
17726;DHT22;8983;53.156;17.960;2023-12-14T05:33:23;3.30;99.90
17726;DHT22;8983;53.156;17.960;2023-12-14T05:35:51;3.40;99.90
17726;DHT22;8983;53.156;17.960;2023-12-14T05:38:20;3.40;99.90
17726;DHT22;8983;53.156;17.960;2023-12-14T05:40:49;3.40;99.90
17726;DHT22;8983;53.156;17.960;2023-12-14T05:43:17;3.40;99.90
17726;DHT22;8983;53.156;17.960;2023-12-14T05:45:45;3.40;99.90
17726;DHT22;8983;53.156;17.960;2023-12-14T05:48:14;3.40;99.90
17726;DHT22;8983;53.156;17.960;2023-12-14T05:50:43;3.40;99.90
17726;DHT22;8983;53.156;17.960;2023-12-14T05:53:11;3.30;99.90
17726;DHT22;8983;53.156;17.960;2023-12-14T05:55:39;3.30;99.90
17726;DHT22;8983;53.156;17.960;2023-12-14T05:58:10;3.30;99.90
17726;DHT22;8983;53.156;17.960;2023-12-14T06:00:38;3.30;99.90
17726;DHT22;8983;53.156;17.960;2023-12-14T06:03:06;3.40;99.90
17726;DHT22;8983;53.156;17.960;2023-12-14T06:05:36;3.30;99.90
17726;DHT22;8983;53.156;17.960;2023-12-14T06:08:04;3.40;99.90
17726;DHT22;8983;53.156;17.960;2023-12-14T06:10:33;3.30;99.90
17726;DHT22;8983;53.156;17.960;2023-12-14T06:13:01;3.40;99.90
17726;DHT22;8983;53.156;17.960;2023-12-14T06:15:29;3.60;99.90
17726;DHT22;8983;53.156;17.960;2023-12-14T06:17:57;3.40;99.90
17726;DHT22;8983;53.156;17.960;2023-12-14T06:20:26;3.40;99.90
17726;DHT22;8983;53.156;17.960;2023-12-14T06:22:55;3.40;99.90
17726;DHT22;8983;53.156;17.960;2023-12-14T06:25:23;3.40;99.90
17726;DHT22;8983;53.156;17.960;2023-12-14T06:27:52;3.30;99.90
17726;DHT22;8983;53.156;17.960;2023-12-14T06:30:20;3.30;99.90
17726;DHT22;8983;53.156;17.960;2023-12-14T06:32:48;3.30;99.90
17726;DHT22;8983;53.156;17.960;2023-12-14T06:35:16;3.60;99.90
17726;DHT22;8983;53.156;17.960;2023-12-14T06:37:44;3.30;99.90
17726;DHT22;8983;53.156;17.960;2023-12-14T06:40:14;3.20;99.90
17726;DHT22;8983;53.156;17.960;2023-12-14T06:42:42;3.30;99.90
17726;DHT22;8983;53.156;17.960;2023-12-14T06:45:10;3.30;99.90
17726;DHT22;8983;53.156;17.960;2023-12-14T06:47:38;3.30;99.90
17726;DHT22;8983;53.156;17.960;2023-12-14T06:50:09;3.30;99.90
17726;DHT22;8983;53.156;17.960;2023-12-14T06:52:38;3.30;99.90
17726;DHT22;8983;53.156;17.960;2023-12-14T06:55:07;3.30;99.90
17726;DHT22;8983;53.156;17.960;2023-12-14T06:57:37;3.30;99.90
17726;DHT22;8983;53.156;17.960;2023-12-14T07:00:06;3.30;99.90
17726;DHT22;8983;53.156;17.960;2023-12-14T07:02:36;3.30;99.90
17726;DHT22;8983;53.156;17.960;2023-12-14T07:05:05;3.30;99.90
17726;DHT22;8983;53.156;17.960;2023-12-14T07:07:33;3.30;99.90
17726;DHT22;8983;53.156;17.960;2023-12-14T07:10:01;3.40;99.90
17726;DHT22;8983;53.156;17.960;2023-12-14T07:12:29;3.30;99.90
17726;DHT22;8983;53.156;17.960;2023-12-14T07:14:59;3.30;99.90
17726;DHT22;8983;53.156;17.960;2023-12-14T07:17:27;3.30;99.90
17726;DHT22;8983;53.156;17.960;2023-12-14T07:19:55;3.60;99.90
17726;DHT22;8983;53.156;17.960;2023-12-14T07:22:26;3.30;99.90
17726;DHT22;8983;53.156;17.960;2023-12-14T07:24:55;3.30;99.90
17726;DHT22;8983;53.156;17.960;2023-12-14T07:27:26;3.30;99.90
17726;DHT22;8983;53.156;17.960;2023-12-14T07:29:54;3.30;99.90
17726;DHT22;8983;53.156;17.960;2023-12-14T07:32:23;3.30;99.90
17726;DHT22;8983;53.156;17.960;2023-12-14T07:34:52;3.30;99.90
17726;DHT22;8983;53.156;17.960;2023-12-14T07:37:21;3.30;99.90
17726;DHT22;8983;53.156;17.960;2023-12-14T07:39:49;3.20;99.90
17726;DHT22;8983;53.156;17.960;2023-12-14T07:42:17;3.20;99.90
17726;DHT22;8983;53.156;17.960;2023-12-14T07:44:46;3.20;99.90
17726;DHT22;8983;53.156;17.960;2023-12-14T07:47:14;3.20;99.90
17726;DHT22;8983;53.156;17.960;2023-12-14T07:49:44;3.20;99.90
17726;DHT22;8983;53.156;17.960;2023-12-14T07:52:13;3.40;99.90
17726;DHT22;8983;53.156;17.960;2023-12-14T07:54:41;3.20;99.90
17726;DHT22;8983;53.156;17.960;2023-12-14T07:57:11;3.40;99.90
17726;DHT22;8983;53.156;17.960;2023-12-14T07:59:39;3.20;99.90
17726;DHT22;8983;53.156;17.960;2023-12-14T08:02:07;3.20;99.90
17726;DHT22;8983;53.156;17.960;2023-12-14T08:04:36;3.20;99.90
17726;DHT22;8983;53.156;17.960;2023-12-14T08:07:05;3.30;99.90
17726;DHT22;8983;53.156;17.960;2023-12-14T08:09:33;3.50;99.90
17726;DHT22;8983;53.156;17.960;2023-12-14T08:12:01;3.30;99.90
17726;DHT22;8983;53.156;17.960;2023-12-14T08:14:32;3.30;99.90
17726;DHT22;8983;53.156;17.960;2023-12-14T08:17:00;3.30;99.90
17726;DHT22;8983;53.156;17.960;2023-12-14T08:19:29;3.30;99.90
17726;DHT22;8983;53.156;17.960;2023-12-14T08:21:57;3.30;99.90
17726;DHT22;8983;53.156;17.960;2023-12-14T08:24:26;3.60;99.90
17726;DHT22;8983;53.156;17.960;2023-12-14T08:26:55;3.30;99.90
17726;DHT22;8983;53.156;17.960;2023-12-14T08:29:23;3.30;99.90
17726;DHT22;8983;53.156;17.960;2023-12-14T08:31:51;3.30;99.90
17726;DHT22;8983;53.156;17.960;2023-12-14T08:34:20;3.30;99.90
17726;DHT22;8983;53.156;17.960;2023-12-14T08:36:48;3.30;99.90
17726;DHT22;8983;53.156;17.960;2023-12-14T08:39:16;3.30;99.90
17726;DHT22;8983;53.156;17.960;2023-12-14T08:41:47;3.30;99.90
17726;DHT22;8983;53.156;17.960;2023-12-14T08:44:15;3.30;99.90
17726;DHT22;8983;53.156;17.960;2023-12-14T08:46:46;3.40;99.90
17726;DHT22;8983;53.156;17.960;2023-12-14T08:49:14;3.50;99.90
17726;DHT22;8983;53.156;17.960;2023-12-14T08:51:43;3.40;99.90
17726;DHT22;8983;53.156;17.960;2023-12-14T08:54:12;3.80;99.90
17726;DHT22;8983;53.156;17.960;2023-12-14T08:56:40;3.50;99.90
17726;DHT22;8983;53.156;17.960;2023-12-14T08:59:10;3.40;99.90
17726;DHT22;8983;53.156;17.960;2023-12-14T09:01:38;3.50;99.90
17726;DHT22;8983;53.156;17.960;2023-12-14T09:04:07;3.50;99.90
17726;DHT22;8983;53.156;17.960;2023-12-14T09:06:36;3.50;99.90
17726;DHT22;8983;53.156;17.960;2023-12-14T09:09:04;3.50;99.90
17726;DHT22;8983;53.156;17.960;2023-12-14T09:11:32;3.50;99.90
17726;DHT22;8983;53.156;17.960;2023-12-14T09:14:02;3.50;99.90
17726;DHT22;8983;53.156;17.960;2023-12-14T09:16:32;3.60;99.90
17726;DHT22;8983;53.156;17.960;2023-12-14T09:19:00;3.60;99.90
17726;DHT22;8983;53.156;17.960;2023-12-14T09:21:28;3.70;99.90
17726;DHT22;8983;53.156;17.960;2023-12-14T09:24:10;3.70;99.90
17726;DHT22;8983;53.156;17.960;2023-12-14T09:26:39;3.70;99.90
17726;DHT22;8983;53.156;17.960;2023-12-14T09:29:08;3.70;99.90
17726;DHT22;8983;53.156;17.960;2023-12-14T09:31:41;3.80;99.90
17726;DHT22;8983;53.156;17.960;2023-12-14T09:34:09;3.80;99.90
17726;DHT22;8983;53.156;17.960;2023-12-14T09:36:38;3.80;99.90
17726;DHT22;8983;53.156;17.960;2023-12-14T09:39:06;3.80;99.90
17726;DHT22;8983;53.156;17.960;2023-12-14T09:41:38;3.90;99.90
17726;DHT22;8983;53.156;17.960;2023-12-14T09:44:07;3.90;99.90
17726;DHT22;8983;53.156;17.960;2023-12-14T09:46:38;3.90;99.90
17726;DHT22;8983;53.156;17.960;2023-12-14T09:49:12;4.60;99.90
17726;DHT22;8983;53.156;17.960;2023-12-14T09:51:41;3.90;99.90
17726;DHT22;8983;53.156;17.960;2023-12-14T09:54:09;3.90;99.90
17726;DHT22;8983;53.156;17.960;2023-12-14T09:56:45;3.90;99.90
17726;DHT22;8983;53.156;17.960;2023-12-14T09:59:14;4.00;99.90
17726;DHT22;8983;53.156;17.960;2023-12-14T10:01:43;4.00;99.90
17726;DHT22;8983;53.156;17.960;2023-12-14T10:04:14;4.00;99.90
17726;DHT22;8983;53.156;17.960;2023-12-14T10:06:43;3.90;99.90
17726;DHT22;8983;53.156;17.960;2023-12-14T10:09:12;3.90;99.90
17726;DHT22;8983;53.156;17.960;2023-12-14T10:11:43;3.90;99.90
17726;DHT22;8983;53.156;17.960;2023-12-14T10:14:18;3.90;99.90
17726;DHT22;8983;53.156;17.960;2023-12-14T10:16:49;4.10;99.90
17726;DHT22;8983;53.156;17.960;2023-12-14T10:19:19;4.00;99.90
17726;DHT22;8983;53.156;17.960;2023-12-14T10:21:48;4.00;99.90
17726;DHT22;8983;53.156;17.960;2023-12-14T10:24:17;4.00;99.90
17726;DHT22;8983;53.156;17.960;2023-12-14T10:26:47;4.00;99.90
17726;DHT22;8983;53.156;17.960;2023-12-14T10:29:15;4.00;99.90
17726;DHT22;8983;53.156;17.960;2023-12-14T10:31:44;4.40;99.90
17726;DHT22;8983;53.156;17.960;2023-12-14T10:34:13;4.00;99.90
17726;DHT22;8983;53.156;17.960;2023-12-14T10:36:44;4.40;99.90
17726;DHT22;8983;53.156;17.960;2023-12-14T10:39:14;4.00;99.90
17726;DHT22;8983;53.156;17.960;2023-12-14T10:41:44;4.00;99.90
17726;DHT22;8983;53.156;17.960;2023-12-14T10:44:25;4.30;99.90
17726;DHT22;8983;53.156;17.960;2023-12-14T10:47:14;3.90;99.90
17726;DHT22;8983;53.156;17.960;2023-12-14T10:49:47;3.90;99.90
17726;DHT22;8983;53.156;17.960;2023-12-14T10:52:18;3.90;99.90
17726;DHT22;8983;53.156;17.960;2023-12-14T10:54:49;4.00;99.90
17726;DHT22;8983;53.156;17.960;2023-12-14T10:57:21;4.00;99.90
17726;DHT22;8983;53.156;17.960;2023-12-14T10:59:49;4.00;99.90
17726;DHT22;8983;53.156;17.960;2023-12-14T11:02:17;4.20;99.90
17726;DHT22;8983;53.156;17.960;2023-12-14T11:04:56;4.00;99.90
17726;DHT22;8983;53.156;17.960;2023-12-14T11:07:46;4.00;99.90
17726;DHT22;8983;53.156;17.960;2023-12-14T11:10:15;4.00;99.90
17726;DHT22;8983;53.156;17.960;2023-12-14T11:12:55;3.90;99.90
17726;DHT22;8983;53.156;17.960;2023-12-14T11:15:24;3.90;99.90
17726;DHT22;8983;53.156;17.960;2023-12-14T11:18:24;4.00;99.90
17726;DHT22;8983;53.156;17.960;2023-12-14T11:20:59;4.00;99.90
17726;DHT22;8983;53.156;17.960;2023-12-14T11:23:33;4.00;99.90
17726;DHT22;8983;53.156;17.960;2023-12-14T11:26:03;3.90;99.90
17726;DHT22;8983;53.156;17.960;2023-12-14T11:28:35;3.90;99.90
17726;DHT22;8983;53.156;17.960;2023-12-14T11:31:04;3.90;99.90
17726;DHT22;8983;53.156;17.960;2023-12-14T11:33:35;3.90;99.90
17726;DHT22;8983;53.156;17.960;2023-12-14T11:36:12;4.30;99.90
17726;DHT22;8983;53.156;17.960;2023-12-14T11:38:42;4.00;99.90
17726;DHT22;8983;53.156;17.960;2023-12-14T11:41:10;4.00;99.90
17726;DHT22;8983;53.156;17.960;2023-12-14T11:43:40;3.90;99.90
17726;DHT22;8983;53.156;17.960;2023-12-14T11:46:09;4.00;99.90
17726;DHT22;8983;53.156;17.960;2023-12-14T11:48:37;4.30;99.90
17726;DHT22;8983;53.156;17.960;2023-12-14T11:51:06;4.00;99.90
17726;DHT22;8983;53.156;17.960;2023-12-14T11:53:37;4.00;99.90
17726;DHT22;8983;53.156;17.960;2023-12-14T11:56:07;4.00;99.90
17726;DHT22;8983;53.156;17.960;2023-12-14T11:58:35;4.00;99.90
17726;DHT22;8983;53.156;17.960;2023-12-14T12:01:15;4.10;99.90
17726;DHT22;8983;53.156;17.960;2023-12-14T12:03:45;4.10;99.90
17726;DHT22;8983;53.156;17.960;2023-12-14T12:06:20;4.10;99.90
17726;DHT22;8983;53.156;17.960;2023-12-14T12:08:51;4.10;99.90
17726;DHT22;8983;53.156;17.960;2023-12-14T12:11:20;4.10;99.90
17726;DHT22;8983;53.156;17.960;2023-12-14T12:13:53;4.10;99.90
17726;DHT22;8983;53.156;17.960;2023-12-14T12:16:22;4.00;99.90
17726;DHT22;8983;53.156;17.960;2023-12-14T12:18:51;4.00;99.90
17726;DHT22;8983;53.156;17.960;2023-12-14T12:21:19;4.00;99.90
17726;DHT22;8983;53.156;17.960;2023-12-14T12:23:48;4.10;99.90
17726;DHT22;8983;53.156;17.960;2023-12-14T12:26:17;4.00;99.90
17726;DHT22;8983;53.156;17.960;2023-12-14T12:28:45;4.00;99.90
17726;DHT22;8983;53.156;17.960;2023-12-14T12:31:15;4.00;99.90
17726;DHT22;8983;53.156;17.960;2023-12-14T12:33:43;4.00;99.90
17726;DHT22;8983;53.156;17.960;2023-12-14T12:36:12;4.50;99.90
17726;DHT22;8983;53.156;17.960;2023-12-14T12:38:40;4.00;99.90
17726;DHT22;8983;53.156;17.960;2023-12-14T12:41:08;4.00;99.90
17726;DHT22;8983;53.156;17.960;2023-12-14T12:43:37;4.00;99.90
17726;DHT22;8983;53.156;17.960;2023-12-14T12:46:05;4.00;99.90
17726;DHT22;8983;53.156;17.960;2023-12-14T12:48:34;4.10;99.90
17726;DHT22;8983;53.156;17.960;2023-12-14T12:51:03;3.90;99.90
17726;DHT22;8983;53.156;17.960;2023-12-14T12:53:32;3.90;99.90
17726;DHT22;8983;53.156;17.960;2023-12-14T12:56:00;3.90;99.90
17726;DHT22;8983;53.156;17.960;2023-12-14T12:58:29;3.90;99.90
17726;DHT22;8983;53.156;17.960;2023-12-14T13:00:58;3.90;99.90
17726;DHT22;8983;53.156;17.960;2023-12-14T13:03:26;3.90;99.90
17726;DHT22;8983;53.156;17.960;2023-12-14T13:05:54;3.90;99.90
17726;DHT22;8983;53.156;17.960;2023-12-14T13:08:22;3.80;99.90
17726;DHT22;8983;53.156;17.960;2023-12-14T13:10:51;3.80;99.90
17726;DHT22;8983;53.156;17.960;2023-12-14T13:13:22;3.80;99.90
17726;DHT22;8983;53.156;17.960;2023-12-14T13:15:50;3.80;99.90
17726;DHT22;8983;53.156;17.960;2023-12-14T13:18:19;3.80;99.90
17726;DHT22;8983;53.156;17.960;2023-12-14T13:20:47;4.00;99.90
17726;DHT22;8983;53.156;17.960;2023-12-14T13:23:16;4.00;99.90
17726;DHT22;8983;53.156;17.960;2023-12-14T13:25:44;4.10;99.90
17726;DHT22;8983;53.156;17.960;2023-12-14T13:28:13;3.70;99.90
17726;DHT22;8983;53.156;17.960;2023-12-14T13:30:44;3.70;99.90
17726;DHT22;8983;53.156;17.960;2023-12-14T13:33:12;3.70;99.90
17726;DHT22;8983;53.156;17.960;2023-12-14T13:35:42;3.70;99.90
17726;DHT22;8983;53.156;17.960;2023-12-14T13:38:10;3.70;99.90
17726;DHT22;8983;53.156;17.960;2023-12-14T13:40:38;3.70;99.90
17726;DHT22;8983;53.156;17.960;2023-12-14T13:43:07;3.80;99.90
17726;DHT22;8983;53.156;17.960;2023-12-14T13:45:38;3.70;99.90
17726;DHT22;8983;53.156;17.960;2023-12-14T13:48:09;3.60;99.90
17726;DHT22;8983;53.156;17.960;2023-12-14T13:50:37;3.60;99.90
17726;DHT22;8983;53.156;17.960;2023-12-14T13:53:07;3.60;99.90
17726;DHT22;8983;53.156;17.960;2023-12-14T13:55:35;3.60;99.90
17726;DHT22;8983;53.156;17.960;2023-12-14T13:58:03;3.60;99.90
17726;DHT22;8983;53.156;17.960;2023-12-14T14:00:31;3.70;99.90
17726;DHT22;8983;53.156;17.960;2023-12-14T14:03:02;3.50;99.90
17726;DHT22;8983;53.156;17.960;2023-12-14T14:05:31;3.50;99.90
17726;DHT22;8983;53.156;17.960;2023-12-14T14:07:59;3.70;99.90
17726;DHT22;8983;53.156;17.960;2023-12-14T14:10:29;3.50;99.90
17726;DHT22;8983;53.156;17.960;2023-12-14T14:12:57;3.50;99.90
17726;DHT22;8983;53.156;17.960;2023-12-14T14:15:26;3.50;99.90
17726;DHT22;8983;53.156;17.960;2023-12-14T14:17:54;3.40;99.90
17726;DHT22;8983;53.156;17.960;2023-12-14T14:20:23;3.40;99.90
17726;DHT22;8983;53.156;17.960;2023-12-14T14:22:51;3.50;99.90
17726;DHT22;8983;53.156;17.960;2023-12-14T14:25:19;3.30;99.90
17726;DHT22;8983;53.156;17.960;2023-12-14T14:27:49;3.40;99.90
17726;DHT22;8983;53.156;17.960;2023-12-14T14:30:17;3.30;99.90
17726;DHT22;8983;53.156;17.960;2023-12-14T14:32:45;3.20;99.90
17726;DHT22;8983;53.156;17.960;2023-12-14T14:35:14;3.20;99.90
17726;DHT22;8983;53.156;17.960;2023-12-14T14:37:42;3.10;99.90
17726;DHT22;8983;53.156;17.960;2023-12-14T14:40:13;3.10;99.90
17726;DHT22;8983;53.156;17.960;2023-12-14T14:42:42;3.00;99.90
17726;DHT22;8983;53.156;17.960;2023-12-14T14:45:11;2.90;99.90
17726;DHT22;8983;53.156;17.960;2023-12-14T14:47:40;2.90;99.90
17726;DHT22;8983;53.156;17.960;2023-12-14T14:50:09;2.80;99.90
17726;DHT22;8983;53.156;17.960;2023-12-14T14:52:38;2.80;99.90
17726;DHT22;8983;53.156;17.960;2023-12-14T14:55:07;2.70;99.90
17726;DHT22;8983;53.156;17.960;2023-12-14T14:57:35;2.70;99.90
17726;DHT22;8983;53.156;17.960;2023-12-14T15:00:04;3.10;99.90
17726;DHT22;8983;53.156;17.960;2023-12-14T15:02:34;2.60;99.90
17726;DHT22;8983;53.156;17.960;2023-12-14T15:05:03;2.60;99.90
17726;DHT22;8983;53.156;17.960;2023-12-14T15:07:31;2.50;99.90
17726;DHT22;8983;53.156;17.960;2023-12-14T15:09:59;2.50;99.90
17726;DHT22;8983;53.156;17.960;2023-12-14T15:12:27;2.70;99.90
17726;DHT22;8983;53.156;17.960;2023-12-14T15:14:55;2.40;99.90
17726;DHT22;8983;53.156;17.960;2023-12-14T15:17:23;2.70;99.90
17726;DHT22;8983;53.156;17.960;2023-12-14T15:19:53;2.30;99.90
17726;DHT22;8983;53.156;17.960;2023-12-14T15:22:21;2.30;99.90
17726;DHT22;8983;53.156;17.960;2023-12-14T15:24:49;2.30;99.90
17726;DHT22;8983;53.156;17.960;2023-12-14T15:27:17;2.20;99.90
17726;DHT22;8983;53.156;17.960;2023-12-14T15:29:45;2.20;99.90
17726;DHT22;8983;53.156;17.960;2023-12-14T15:32:13;2.20;99.90
17726;DHT22;8983;53.156;17.960;2023-12-14T15:34:41;2.10;99.90
17726;DHT22;8983;53.156;17.960;2023-12-14T15:37:11;2.10;99.90
17726;DHT22;8983;53.156;17.960;2023-12-14T15:39:39;2.10;99.90
17726;DHT22;8983;53.156;17.960;2023-12-14T15:42:07;2.10;99.90
17726;DHT22;8983;53.156;17.960;2023-12-14T15:44:35;2.10;99.90
17726;DHT22;8983;53.156;17.960;2023-12-14T15:47:04;2.00;99.90
17726;DHT22;8983;53.156;17.960;2023-12-14T15:49:32;2.00;99.90
17726;DHT22;8983;53.156;17.960;2023-12-14T15:52:00;2.00;99.90
17726;DHT22;8983;53.156;17.960;2023-12-14T15:54:30;2.10;99.90
17726;DHT22;8983;53.156;17.960;2023-12-14T15:56:58;2.10;99.90